Time;durP1;ratioP1;P1;durP2;ratioP2;P2;SDS_P1;SDS_P2;PMS_P1;PMS_P2;Temp;Humidity;BMP_temperature;BMP_pressure;BME280_temperature;BME280_humidity;BME280_pressure;Samples;Min_cycle;Max_cycle;Signal;HPM_P1;HPM_P2
2024/02/20 00:00:17;;;;;;;5.23;2.27;;;;;;;;;;5039904;28;20037;-56
2024/02/20 00:02:43;;;;;;;7.83;2.40;;;;;;;;;;5038672;28;20022;-57
2024/02/20 00:05:08;;;;;;;6.18;2.30;;;;;;;;;;5038349;28;20416;-57
2024/02/20 00:07:34;;;;;;;6.97;2.30;;;;;;;;;;5038586;28;20386;-57
2024/02/20 00:09:59;;;;;;;6.80;2.35;;;;;;;;;;5038103;28;20053;-56
2024/02/20 00:12:24;;;;;;;4.93;2.03;;;;;;;;;;5036841;28;20492;-56
2024/02/20 00:14:49;;;;;;;7.57;2.17;;;;;;;;;;5035435;28;20083;-57
2024/02/20 00:17:15;;;;;;;8.40;2.10;;;;;;;;;;5038580;28;20021;-58
2024/02/20 00:19:40;;;;;;;6.70;2.13;;;;;;;;;;5017703;28;20509;-57
2024/02/20 00:22:05;;;;;;;5.95;2.15;;;;;;;;;;5019203;28;20498;-56
2024/02/20 00:24:30;;;;;;;6.13;2.27;;;;;;;;;;5019084;28;20109;-58
2024/02/20 00:26:56;;;;;;;9.53;2.00;;;;;;;;;;5013199;28;20038;-58
2024/02/20 00:29:21;;;;;;;5.25;1.95;;;;;;;;;;5013523;28;20037;-56
2024/02/20 00:31:46;;;;;;;4.90;1.80;;;;;;;;;;5012338;28;20030;-56
2024/02/20 00:34:12;;;;;;;4.78;1.88;;;;;;;;;;5012276;28;20108;-56
2024/02/20 00:36:37;;;;;;;8.40;2.30;;;;;;;;;;5013316;28;20026;-56
2024/02/20 00:39:03;;;;;;;6.20;1.90;;;;;;;;;;5013405;28;20387;-56
2024/02/20 00:41:28;;;;;;;4.68;1.67;;;;;;;;;;5012921;28;20390;-55
2024/02/20 00:43:53;;;;;;;5.90;1.97;;;;;;;;;;5031171;28;20033;-57
2024/02/20 00:46:21;;;;;;;5.90;1.90;;;;;;;;;;5032427;28;20039;-56
2024/02/20 00:48:48;;;;;;;8.07;2.03;;;;;;;;;;5032199;28;20028;-56
2024/02/20 00:51:17;;;;;;;4.32;1.80;;;;;;;;;;5030805;28;20489;-56
2024/02/20 00:53:42;;;;;;;5.60;1.55;;;;;;;;;;5032552;28;20025;-55
2024/02/20 00:56:07;;;;;;;6.10;2.13;;;;;;;;;;5035680;28;20017;-55
2024/02/20 00:58:34;;;;;;;4.85;1.95;;;;;;;;;;5044570;28;20469;-56
2024/02/20 01:01:00;;;;;;;4.78;2.00;;;;;;;;;;5044625;28;20040;-57
2024/02/20 01:03:25;;;;;;;7.47;2.17;;;;;;;;;;5048243;28;20018;-55
2024/02/20 01:05:50;;;;;;;6.67;2.10;;;;;;;;;;5036147;28;20040;-56
2024/02/20 01:08:16;;;;;;;6.63;1.80;;;;;;;;;;5032450;28;20025;-56
2024/02/20 01:10:41;;;;;;;6.43;2.20;;;;;;;;;;5032144;28;20100;-56
2024/02/20 01:13:07;;;;;;;5.75;2.50;;;;;;;;;;5032177;28;20017;-56
2024/02/20 01:15:32;;;;;;;6.88;2.03;;;;;;;;;;5031507;28;20442;-56
2024/02/20 01:17:57;;;;;;;5.43;1.63;;;;;;;;;;5021522;28;20052;-56
2024/02/20 01:20:22;;;;;;;5.77;2.10;;;;;;;;;;5010588;28;20026;-56
2024/02/20 01:22:49;;;;;;;7.00;2.10;;;;;;;;;;5012141;28;20026;-56
2024/02/20 01:25:14;;;;;;;5.55;2.20;;;;;;;;;;5000237;28;20029;-56
2024/02/20 01:27:40;;;;;;;6.25;2.20;;;;;;;;;;4992635;28;20026;-56
2024/02/20 01:30:06;;;;;;;7.88;1.98;;;;;;;;;;4992439;28;20057;-57
2024/02/20 01:32:31;;;;;;;6.88;2.45;;;;;;;;;;4991976;28;20023;-56
2024/02/20 01:34:56;;;;;;;6.10;2.20;;;;;;;;;;4991813;28;20033;-56
2024/02/20 01:37:22;;;;;;;4.97;2.10;;;;;;;;;;4992276;28;20030;-56
2024/02/20 01:39:47;;;;;;;8.90;2.55;;;;;;;;;;4993301;28;20026;-58
2024/02/20 01:42:12;;;;;;;5.32;2.25;;;;;;;;;;5001818;28;20393;-58
2024/02/20 01:44:37;;;;;;;6.57;2.05;;;;;;;;;;5030867;28;20060;-57
2024/02/20 01:47:03;;;;;;;5.93;2.80;;;;;;;;;;5031491;28;20025;-57
2024/02/20 01:49:28;;;;;;;5.78;1.90;;;;;;;;;;5030002;28;20029;-57
2024/02/20 01:51:54;;;;;;;6.57;2.00;;;;;;;;;;5030693;28;20568;-55
2024/02/20 01:54:20;;;;;;;5.97;2.50;;;;;;;;;;5030819;28;20021;-55
2024/02/20 01:56:45;;;;;;;8.13;2.13;;;;;;;;;;5031276;28;20466;-57
2024/02/20 01:59:10;;;;;;;5.60;2.50;;;;;;;;;;5031428;28;20045;-58
2024/02/20 02:01:35;;;;;;;5.63;2.28;;;;;;;;;;5030903;28;20473;-57
2024/02/20 02:04:01;;;;;;;5.85;2.40;;;;;;;;;;5031004;28;20028;-57
2024/02/20 02:06:27;;;;;;;7.53;2.60;;;;;;;;;;5031265;28;20052;-56
2024/02/20 02:08:52;;;;;;;7.38;2.72;;;;;;;;;;5031893;28;20028;-55
2024/02/20 02:11:17;;;;;;;6.47;2.85;;;;;;;;;;5033262;28;20022;-57
2024/02/20 02:13:42;;;;;;;8.32;2.70;;;;;;;;;;5032283;28;20025;-56
2024/02/20 02:16:08;;;;;;;6.32;2.42;;;;;;;;;;5027849;28;20076;-57
2024/02/20 02:18:33;;;;;;;7.57;2.67;;;;;;;;;;5011170;28;20033;-56
2024/02/20 02:20:59;;;;;;;6.55;2.30;;;;;;;;;;5011327;28;20018;-57
2024/02/20 02:23:24;;;;;;;7.32;2.83;;;;;;;;;;5010711;28;20041;-56
2024/02/20 02:25:50;;;;;;;6.20;2.67;;;;;;;;;;5012938;28;20022;-56
2024/02/20 02:28:15;;;;;;;9.93;2.70;;;;;;;;;;5015381;28;20014;-57
2024/02/20 02:30:40;;;;;;;6.00;2.55;;;;;;;;;;5013923;28;20026;-57
2024/02/20 02:33:07;;;;;;;7.87;2.60;;;;;;;;;;5014758;28;20026;-57
2024/02/20 02:35:32;;;;;;;11.25;2.70;;;;;;;;;;5014892;28;20030;-56
2024/02/20 02:37:57;;;;;;;5.10;2.28;;;;;;;;;;5015004;28;20355;-56
2024/02/20 02:40:22;;;;;;;6.77;2.80;;;;;;;;;;5015094;28;20029;-56
2024/02/20 02:42:47;;;;;;;8.15;2.33;;;;;;;;;;5025376;28;20010;-56
2024/02/20 02:45:12;;;;;;;7.13;2.80;;;;;;;;;;5039665;28;20071;-56
2024/02/20 02:47:38;;;;;;;6.93;2.47;;;;;;;;;;5043315;28;20028;-57
2024/02/20 02:50:03;;;;;;;7.22;2.63;;;;;;;;;;5040085;28;20034;-56
2024/02/20 02:52:28;;;;;;;7.55;2.63;;;;;;;;;;5036329;28;20018;-56
2024/02/20 02:54:54;;;;;;;7.20;3.35;;;;;;;;;;5035053;28;20071;-57
2024/02/20 02:57:19;;;;;;;6.27;2.60;;;;;;;;;;5037600;28;20037;-57
2024/02/20 02:59:44;;;;;;;8.98;2.88;;;;;;;;;;5037108;28;20389;-55
2024/02/20 03:02:12;;;;;;;7.43;2.50;;;;;;;;;;5040111;28;20032;-56
2024/02/20 03:04:37;;;;;;;6.68;2.65;;;;;;;;;;5040297;28;20045;-56
2024/02/20 03:07:02;;;;;;;6.47;2.75;;;;;;;;;;5039850;28;20021;-57
2024/02/20 03:09:28;;;;;;;6.03;2.40;;;;;;;;;;5036590;28;20021;-56
2024/02/20 03:11:53;;;;;;;5.70;2.60;;;;;;;;;;5034852;28;20481;-57
2024/02/20 03:14:21;;;;;;;8.27;2.95;;;;;;;;;;5034419;28;20026;-55
2024/02/20 03:16:46;;;;;;;8.27;2.75;;;;;;;;;;5017587;28;20044;-57
2024/02/20 03:19:12;;;;;;;8.57;2.50;;;;;;;;;;5014696;28;20514;-57
2024/02/20 03:21:37;;;;;;;6.70;2.70;;;;;;;;;;5014184;28;20068;-55
2024/02/20 03:24:04;;;;;;;7.70;3.38;;;;;;;;;;5014131;28;20363;-56
2024/02/20 03:26:29;;;;;;;6.75;3.10;;;;;;;;;;5013942;28;20029;-57
2024/02/20 03:28:55;;;;;;;7.87;2.80;;;;;;;;;;5014375;28;20022;-57
2024/02/20 03:31:21;;;;;;;7.05;2.72;;;;;;;;;;5013841;28;20073;-57
2024/02/20 03:33:46;;;;;;;7.35;3.00;;;;;;;;;;5013446;28;20026;-56
2024/02/20 03:36:11;;;;;;;8.95;3.03;;;;;;;;;;5005917;28;20038;-56
2024/02/20 03:38:36;;;;;;;8.55;3.22;;;;;;;;;;4994048;28;20026;-57
2024/02/20 03:41:01;;;;;;;8.10;2.88;;;;;;;;;;4994410;28;20085;-58
2024/02/20 03:43:28;;;;;;;9.03;3.23;;;;;;;;;;5023190;28;20028;-57
2024/02/20 03:45:53;;;;;;;;;;;;;;;;;;5033836;28;20040;-58
2024/02/20 03:48:18;;;;;;;8.13;3.07;;;;;;;;;;5033213;28;19905;-58
2024/02/20 03:50:43;;;;;;;8.10;3.30;;;;;;;;;;5033228;28;20034;-56
2024/02/20 03:53:08;;;;;;;6.90;2.90;;;;;;;;;;5032879;28;20041;-57
2024/02/20 03:55:34;;;;;;;8.82;3.78;;;;;;;;;;5032961;28;20394;-56
2024/02/20 03:57:59;;;;;;;9.23;4.10;;;;;;;;;;5033151;28;20036;-57
2024/02/20 04:00:24;;;;;;;12.43;3.88;;;;;;;;;;5033292;28;20066;-56
2024/02/20 04:02:50;;;;;;;9.40;4.03;;;;;;;;;;5033273;28;20026;-57
2024/02/20 04:05:16;;;;;;;11.13;3.97;;;;;;;;;;5032879;28;20030;-57
2024/02/20 04:07:42;;;;;;;11.60;4.40;;;;;;;;;;5033114;28;20033;-57
2024/02/20 04:10:11;;;;;;;11.90;4.20;;;;;;;;;;5033145;28;20034;-57
2024/02/20 04:12:36;;;;;;;10.88;4.55;;;;;;;;;;5032447;28;20014;-57
2024/02/20 04:15:05;;;;;;;9.70;4.03;;;;;;;;;;5025129;28;20041;-57
2024/02/20 04:17:30;;;;;;;10.65;4.75;;;;;;;;;;5013490;28;20041;-57
2024/02/20 04:19:55;;;;;;;11.53;4.50;;;;;;;;;;5013347;28;20470;-56
2024/02/20 04:22:20;;;;;;;10.27;4.60;;;;;;;;;;5012884;28;20041;-58
2024/02/20 04:24:45;;;;;;;12.15;4.65;;;;;;;;;;5012719;28;20470;-57
2024/02/20 04:27:10;;;;;;;11.88;4.25;;;;;;;;;;5013189;28;20036;-57
2024/02/20 04:29:36;;;;;;;12.13;4.95;;;;;;;;;;5012737;28;20038;-56
2024/02/20 04:32:01;;;;;;;13.17;4.77;;;;;;;;;;5013044;28;20034;-57
2024/02/20 04:34:26;;;;;;;13.80;6.07;;;;;;;;;;5012753;28;20014;-58
2024/02/20 04:36:51;;;;;;;11.90;5.05;;;;;;;;;;5012958;28;20021;-57
2024/02/20 04:39:16;;;;;;;10.80;4.68;;;;;;;;;;5012537;28;20064;-58
2024/02/20 04:41:42;;;;;;;11.60;4.72;;;;;;;;;;5008759;28;20029;-58
2024/02/20 04:44:08;;;;;;;11.25;4.47;;;;;;;;;;5032025;28;20090;-58
2024/02/20 04:46:33;;;;;;;13.07;5.32;;;;;;;;;;5032456;28;20021;-56
2024/02/20 04:48:58;;;;;;;12.05;4.95;;;;;;;;;;5031652;28;20083;-56
2024/02/20 04:51:23;;;;;;;13.13;5.10;;;;;;;;;;5031833;28;20052;-58
2024/02/20 04:53:49;;;;;;;10.67;4.70;;;;;;;;;;5032058;28;20094;-56
2024/02/20 04:56:14;;;;;;;11.73;4.97;;;;;;;;;;5030856;28;20038;-56
2024/02/20 04:58:39;;;;;;;11.57;4.70;;;;;;;;;;5032158;28;20018;-56
2024/02/20 05:01:04;;;;;;;13.45;4.80;;;;;;;;;;5030122;28;20013;-56
2024/02/20 05:03:29;;;;;;;13.03;5.13;;;;;;;;;;5011926;28;20028;-56
2024/02/20 05:05:54;;;;;;;11.73;4.80;;;;;;;;;;5013965;28;20026;-58
2024/02/20 05:08:20;;;;;;;10.63;4.32;;;;;;;;;;5014005;28;20096;-57
2024/02/20 05:10:45;;;;;;;12.60;4.68;;;;;;;;;;5014150;28;20034;-57
2024/02/20 05:13:10;;;;;;;12.93;4.78;;;;;;;;;;5014888;28;20030;-57
2024/02/20 05:15:35;;;;;;;11.38;4.65;;;;;;;;;;5030474;28;20059;-56
2024/02/20 05:18:00;;;;;;;9.13;4.30;;;;;;;;;;5028398;28;20033;-56
2024/02/20 05:20:25;;;;;;;10.13;4.57;;;;;;;;;;5026738;28;20065;-58
2024/02/20 05:22:50;;;;;;;12.70;4.78;;;;;;;;;;5027471;28;20347;-56
2024/02/20 05:25:16;;;;;;;12.68;4.90;;;;;;;;;;5027526;28;20113;-56
2024/02/20 05:27:41;;;;;;;10.07;4.63;;;;;;;;;;5020346;28;20021;-57
2024/02/20 05:30:07;;;;;;;11.45;4.93;;;;;;;;;;5016547;28;20034;-56
2024/02/20 05:32:32;;;;;;;12.00;4.35;;;;;;;;;;5012206;28;20017;-57
2024/02/20 05:34:57;;;;;;;10.30;4.90;;;;;;;;;;5012234;28;20029;-56
2024/02/20 05:37:23;;;;;;;10.90;4.80;;;;;;;;;;5011939;28;20428;-56
2024/02/20 05:39:48;;;;;;;13.10;5.00;;;;;;;;;;5011923;28;20177;-58
2024/02/20 05:42:13;;;;;;;10.55;4.28;;;;;;;;;;5016643;28;20154;-56
2024/02/20 05:44:38;;;;;;;11.38;4.55;;;;;;;;;;5031733;28;20032;-56
2024/02/20 05:47:03;;;;;;;9.83;4.43;;;;;;;;;;5031616;28;20378;-57
2024/02/20 05:49:28;;;;;;;11.97;4.57;;;;;;;;;;5031696;28;20026;-56
2024/02/20 05:51:54;;;;;;;10.53;4.50;;;;;;;;;;5031610;28;20450;-56
2024/02/20 05:54:19;;;;;;;12.47;5.13;;;;;;;;;;5031915;28;20021;-56
2024/02/20 05:56:44;;;;;;;11.30;4.53;;;;;;;;;;5033577;28;20025;-61
2024/02/20 05:59:09;;;;;;;12.55;5.18;;;;;;;;;;5035933;28;20029;-57
2024/02/20 06:01:34;;;;;;;9.37;3.70;;;;;;;;;;5026776;28;20030;-55
2024/02/20 06:04:04;;;;;;;10.27;4.05;;;;;;;;;;5013415;28;20105;-56
2024/02/20 06:06:30;;;;;;;9.80;3.50;;;;;;;;;;5010780;28;20422;-57
2024/02/20 06:08:55;;;;;;;8.57;3.35;;;;;;;;;;5008089;28;20029;-57
2024/02/20 06:11:26;;;;;;;7.82;2.95;;;;;;;;;;5008398;28;20029;-57
2024/02/20 06:13:51;;;;;;;7.65;3.10;;;;;;;;;;5009188;28;20419;-57
2024/02/20 06:16:17;;;;;;;9.05;3.33;;;;;;;;;;5009749;28;20056;-56
2024/02/20 06:18:42;;;;;;;10.85;3.22;;;;;;;;;;5008504;28;20030;-57
2024/02/20 06:21:08;;;;;;;7.10;2.60;;;;;;;;;;5005876;28;20048;-57
2024/02/20 06:23:42;;;;;;;7.05;3.00;;;;;;;;;;5006421;28;20025;-57
2024/02/20 06:26:07;;;;;;;9.80;3.55;;;;;;;;;;5020093;28;20037;-58
2024/02/20 06:28:33;;;;;;;10.00;3.37;;;;;;;;;;5010379;28;20025;-57
2024/02/20 06:30:59;;;;;;;6.70;2.90;;;;;;;;;;5007795;28;20472;-56
2024/02/20 06:33:25;;;;;;;8.52;3.20;;;;;;;;;;5011073;28;20022;-56
2024/02/20 06:35:50;;;;;;;10.38;3.30;;;;;;;;;;5011068;28;20041;-57
2024/02/20 06:38:15;;;;;;;8.57;3.75;;;;;;;;;;5011125;28;20131;-56
2024/02/20 06:40:40;;;;;;;9.00;4.10;;;;;;;;;;5011265;28;20471;-58
2024/02/20 06:43:05;;;;;;;10.13;3.80;;;;;;;;;;5010719;28;20022;-57
2024/02/20 06:45:31;;;;;;;11.85;4.03;;;;;;;;;;5002011;28;20026;-56
2024/02/20 06:47:57;;;;;;;11.07;3.58;;;;;;;;;;5010707;28;20014;-56
2024/02/20 06:50:22;;;;;;;8.98;3.65;;;;;;;;;;5009310;28;20088;-57
2024/02/20 06:52:47;;;;;;;9.77;3.88;;;;;;;;;;4993145;28;20644;-57
2024/02/20 06:55:12;;;;;;;10.13;3.93;;;;;;;;;;4992395;28;20030;-57
2024/02/20 06:57:39;;;;;;;8.73;3.50;;;;;;;;;;5002583;28;20049;-57
2024/02/20 07:00:05;;;;;;;7.38;2.60;;;;;;;;;;5010796;28;20022;-56
2024/02/20 07:02:31;;;;;;;6.90;2.83;;;;;;;;;;5006060;28;20018;-57
2024/02/20 07:04:56;;;;;;;6.78;2.60;;;;;;;;;;4991277;28;20027;-56
2024/02/20 07:07:21;;;;;;;5.50;2.13;;;;;;;;;;4991317;28;20018;-57
2024/02/20 07:09:47;;;;;;;6.00;1.80;;;;;;;;;;4995085;28;20066;-57
2024/02/20 07:12:12;;;;;;;4.43;1.70;;;;;;;;;;5015634;28;20095;-56
2024/02/20 07:14:37;;;;;;;4.20;1.43;;;;;;;;;;5017323;28;20026;-57
2024/02/20 07:17:02;;;;;;;4.67;1.90;;;;;;;;;;5020182;28;20021;-56
2024/02/20 07:19:27;;;;;;;6.20;1.80;;;;;;;;;;5008387;28;20472;-57
2024/02/20 07:21:52;;;;;;;4.70;1.88;;;;;;;;;;5014615;28;20071;-57
2024/02/20 07:24:18;;;;;;;5.53;1.77;;;;;;;;;;5010913;28;20026;-56
2024/02/20 07:26:45;;;;;;;5.93;1.90;;;;;;;;;;5013548;28;20041;-56
2024/02/20 07:29:10;;;;;;;4.97;1.80;;;;;;;;;;5013669;28;20028;-56
2024/02/20 07:31:36;;;;;;;6.82;2.42;;;;;;;;;;5013539;28;20026;-65
2024/02/20 07:34:01;;;;;;;5.70;2.13;;;;;;;;;;5014370;28;20504;-57
2024/02/20 07:36:26;;;;;;;5.40;2.10;;;;;;;;;;5014798;28;20029;-57
2024/02/20 07:38:51;;;;;;;5.27;2.00;;;;;;;;;;5014549;28;20021;-56
2024/02/20 07:41:16;;;;;;;4.95;2.10;;;;;;;;;;5014400;28;20030;-58
2024/02/20 07:43:42;;;;;;;5.10;2.00;;;;;;;;;;5014200;28;20021;-55
2024/02/20 07:46:07;;;;;;;5.45;2.38;;;;;;;;;;5012879;28;20104;-57
2024/02/20 07:48:32;;;;;;;7.97;2.40;;;;;;;;;;5014627;28;20026;-56
2024/02/20 07:50:57;;;;;;;6.53;2.17;;;;;;;;;;5013478;28;20048;-57
2024/02/20 07:53:22;;;;;;;5.63;1.83;;;;;;;;;;5011286;28;20053;-58
2024/02/20 07:55:48;;;;;;;5.90;1.80;;;;;;;;;;5014326;28;20054;-57
2024/02/20 07:58:13;;;;;;;5.20;1.97;;;;;;;;;;5014517;28;20028;-57
2024/02/20 08:00:38;;;;;;;4.30;1.60;;;;;;;;;;5012867;28;20466;-57
2024/02/20 08:03:03;;;;;;;5.75;2.00;;;;;;;;;;5013102;28;20022;-57
2024/02/20 08:05:28;;;;;;;4.95;1.95;;;;;;;;;;5012638;28;20022;-56
2024/02/20 08:07:54;;;;;;;5.88;1.90;;;;;;;;;;5032227;28;20109;-58
2024/02/20 08:10:19;;;;;;;6.65;1.80;;;;;;;;;;5020856;28;20490;-56
2024/02/20 08:12:44;;;;;;;4.20;1.85;;;;;;;;;;5013112;28;20057;-55
2024/02/20 08:15:10;;;;;;;5.53;1.87;;;;;;;;;;4994876;28;20026;-56
2024/02/20 08:17:36;;;;;;;5.20;1.70;;;;;;;;;;5008951;28;20056;-58
2024/02/20 08:20:04;;;;;;;4.63;1.52;;;;;;;;;;5013255;28;20484;-57
2024/02/20 08:22:29;;;;;;;6.05;1.92;;;;;;;;;;5011936;28;20061;-57
2024/02/20 08:24:54;;;;;;;6.18;2.00;;;;;;;;;;5012550;28;20029;-58
2024/02/20 08:27:20;;;;;;;5.60;2.17;;;;;;;;;;5013184;28;20064;-57
2024/02/20 08:29:45;;;;;;;5.45;1.83;;;;;;;;;;5012637;28;20112;-56
2024/02/20 08:32:12;;;;;;;6.38;1.77;;;;;;;;;;5012776;28;20029;-57
2024/02/20 08:34:37;;;;;;;4.47;1.70;;;;;;;;;;5012961;28;20030;-56
2024/02/20 08:37:02;;;;;;;5.67;2.00;;;;;;;;;;5013589;28;20429;-56
2024/02/20 08:39:28;;;;;;;4.88;2.13;;;;;;;;;;5013720;28;20033;-56
2024/02/20 08:41:53;;;;;;;6.85;2.33;;;;;;;;;;5004859;28;20030;-56
2024/02/20 08:44:18;;;;;;;5.10;2.08;;;;;;;;;;4994326;28;20022;-56
2024/02/20 08:46:43;;;;;;;6.07;2.10;;;;;;;;;;4995681;28;20089;-56
2024/02/20 08:49:09;;;;;;;5.18;1.88;;;;;;;;;;5011122;28;20118;-56
2024/02/20 08:51:34;;;;;;;5.13;2.03;;;;;;;;;;5015302;28;20068;-57
2024/02/20 08:53:59;;;;;;;7.03;2.03;;;;;;;;;;5014048;28;20026;-55
2024/02/20 08:56:25;;;;;;;5.45;1.70;;;;;;;;;;5018427;28;20028;-57
2024/02/20 08:58:51;;;;;;;6.30;1.73;;;;;;;;;;5013267;28;20022;-58
2024/02/20 09:01:16;;;;;;;5.05;1.52;;;;;;;;;;5011530;28;20022;-56
2024/02/20 09:03:41;;;;;;;5.18;1.30;;;;;;;;;;5012756;28;20521;-56
2024/02/20 09:06:07;;;;;;;6.75;2.00;;;;;;;;;;5013073;28;20084;-56
2024/02/20 09:08:32;;;;;;;5.80;1.30;;;;;;;;;;5013227;28;20014;-56
2024/02/20 09:11:03;;;;;;;4.73;1.70;;;;;;;;;;5012515;28;20547;-56
2024/02/20 09:13:28;;;;;;;3.42;1.20;;;;;;;;;;5012334;28;20022;-56
2024/02/20 09:15:53;;;;;;;3.63;1.08;;;;;;;;;;4998164;28;20029;-56
2024/02/20 09:18:18;;;;;;;4.15;1.50;;;;;;;;;;4997856;28;20023;-56
2024/02/20 09:20:43;;;;;;;2.92;0.98;;;;;;;;;;4999035;28;20022;-57
2024/02/20 09:23:08;;;;;;;3.38;1.05;;;;;;;;;;4998747;28;20065;-57
2024/02/20 09:25:34;;;;;;;4.85;1.20;;;;;;;;;;5014967;28;20179;-58
2024/02/20 09:27:59;;;;;;;4.72;1.30;;;;;;;;;;5011811;28;20113;-55
2024/02/20 09:30:24;;;;;;;5.93;1.45;;;;;;;;;;5011615;28;20403;-56
2024/02/20 09:32:49;;;;;;;4.45;1.33;;;;;;;;;;5012079;28;20053;-57
2024/02/20 09:35:14;;;;;;;9.50;1.73;;;;;;;;;;5011973;28;20821;-58
2024/02/20 09:37:40;;;;;;;4.00;1.27;;;;;;;;;;5014971;28;20057;-57
2024/02/20 09:40:05;;;;;;;5.43;1.57;;;;;;;;;;5016278;28;20022;-57
2024/02/20 09:42:34;;;;;;;7.55;1.58;;;;;;;;;;5013158;28;20030;-56
2024/02/20 09:44:59;;;;;;;4.65;1.60;;;;;;;;;;5012136;28;20084;-57
2024/02/20 09:47:25;;;;;;;5.63;1.40;;;;;;;;;;5011985;28;20026;-57
2024/02/20 09:49:53;;;;;;;6.55;1.40;;;;;;;;;;5011521;28;20045;-57
2024/02/20 09:52:19;;;;;;;4.28;1.30;;;;;;;;;;5011553;28;20050;-57
2024/02/20 09:54:44;;;;;;;7.47;1.40;;;;;;;;;;4996844;28;20382;-55
2024/02/20 09:57:09;;;;;;;5.30;1.35;;;;;;;;;;4992209;28;20113;-56
2024/02/20 09:59:35;;;;;;;5.53;1.00;;;;;;;;;;5007675;28;20499;-56
2024/02/20 10:02:00;;;;;;;6.87;1.30;;;;;;;;;;5006796;28;20073;-57
2024/02/20 10:04:28;;;;;;;6.25;1.50;;;;;;;;;;4992353;28;20062;-57
2024/02/20 10:06:53;;;;;;;6.50;1.35;;;;;;;;;;4993776;28;20014;-56
2024/02/20 10:09:18;;;;;;;4.47;1.27;;;;;;;;;;5011345;28;20018;-55
2024/02/20 10:11:43;;;;;;;7.97;1.43;;;;;;;;;;5011467;28;20084;-57
2024/02/20 10:14:09;;;;;;;6.57;1.30;;;;;;;;;;5011413;28;20025;-56
2024/02/20 10:16:34;;;;;;;5.57;1.20;;;;;;;;;;5011987;28;20076;-57
2024/02/20 10:19:00;;;;;;;11.27;1.38;;;;;;;;;;5011889;28;20029;-56
2024/02/20 10:21:25;;;;;;;9.10;1.40;;;;;;;;;;5011573;28;20022;-56
2024/02/20 10:24:03;;;;;;;9.48;1.23;;;;;;;;;;5011405;28;20018;-56
2024/02/20 10:26:34;;;;;;;7.07;1.30;;;;;;;;;;5011756;28;20038;-56
2024/02/20 10:28:59;;;;;;;7.25;1.10;;;;;;;;;;5016189;28;20014;-57
2024/02/20 10:31:25;;;;;;;8.05;1.20;;;;;;;;;;5020328;28;20116;-56
2024/02/20 10:33:51;;;;;;;8.55;1.52;;;;;;;;;;5021429;28;20014;-56
2024/02/20 10:36:18;;;;;;;5.80;1.20;;;;;;;;;;5018150;28;20028;-57
2024/02/20 10:38:43;;;;;;;7.30;1.65;;;;;;;;;;5012761;28;20057;-56
2024/02/20 10:41:08;;;;;;;9.52;1.98;;;;;;;;;;5012701;28;20029;-56
2024/02/20 10:43:34;;;;;;;8.05;2.00;;;;;;;;;;5012710;28;20041;-56
2024/02/20 10:46:00;;;;;;;7.85;2.20;;;;;;;;;;5011061;28;20534;-57
2024/02/20 10:48:27;;;;;;;9.55;2.20;;;;;;;;;;5014940;28;20021;-57
2024/02/20 10:50:53;;;;;;;13.70;3.53;;;;;;;;;;5014540;28;20041;-56
2024/02/20 10:53:19;;;;;;;11.40;2.70;;;;;;;;;;5014644;28;20022;-56
2024/02/20 10:55:45;;;;;;;13.57;3.08;;;;;;;;;;5012930;28;20021;-57
2024/02/20 10:58:16;;;;;;;14.25;3.38;;;;;;;;;;5015035;28;20147;-56
2024/02/20 11:00:41;;;;;;;13.13;2.97;;;;;;;;;;5014821;28;20045;-56
2024/02/20 11:03:07;;;;;;;11.70;3.20;;;;;;;;;;5014524;28;20029;-57
2024/02/20 11:05:32;;;;;;;14.07;4.00;;;;;;;;;;5014480;28;20018;-57
2024/02/20 11:08:08;;;;;;;15.85;3.90;;;;;;;;;;5012991;28;20389;-57
2024/02/20 11:10:35;;;;;;;16.35;3.65;;;;;;;;;;5014603;28;20049;-56
2024/02/20 11:13:10;;;;;;;21.17;5.43;;;;;;;;;;5014750;28;20038;-56
2024/02/20 11:15:35;;;;;;;17.85;3.90;;;;;;;;;;5015052;28;20022;-57
2024/02/20 11:18:00;;;;;;;16.23;3.73;;;;;;;;;;5014907;28;20014;-57
2024/02/20 11:20:26;;;;;;;10.77;2.83;;;;;;;;;;5016990;28;20445;-57
2024/02/20 11:22:51;;;;;;;11.17;3.53;;;;;;;;;;5016683;28;20026;-57
2024/02/20 11:25:20;;;;;;;12.00;3.17;;;;;;;;;;5018216;28;20022;-58
2024/02/20 11:27:46;;;;;;;11.57;2.90;;;;;;;;;;5020914;28;20520;-56
2024/02/20 11:30:16;;;;;;;16.48;3.40;;;;;;;;;;5024551;28;20030;-56
2024/02/20 11:32:42;;;;;;;15.32;2.95;;;;;;;;;;5017805;28;20018;-57
2024/02/20 11:35:24;;;;;;;12.40;3.25;;;;;;;;;;4996677;28;20444;-58
2024/02/20 11:37:51;;;;;;;14.93;2.95;;;;;;;;;;4994794;28;20034;-56
2024/02/20 11:40:22;;;;;;;12.95;2.67;;;;;;;;;;4996326;28;20026;-57
2024/02/20 11:42:47;;;;;;;14.32;2.63;;;;;;;;;;4997337;28;20545;-58
2024/02/20 11:45:22;;;;;;;14.60;3.03;;;;;;;;;;4997746;28;20026;-56
2024/02/20 11:48:03;;;;;;;15.40;3.08;;;;;;;;;;4997524;28;20053;-59
2024/02/20 11:50:28;;;;;;;14.32;2.95;;;;;;;;;;4996950;28;20092;-57
2024/02/20 11:53:07;;;;;;;15.25;2.92;;;;;;;;;;4997267;28;20474;-57
2024/02/20 11:55:32;;;;;;;22.15;5.50;;;;;;;;;;4998485;28;20018;-57
2024/02/20 11:58:04;;;;;;;16.27;3.50;;;;;;;;;;5003265;28;20026;-57
2024/02/20 12:00:33;;;;;;;11.15;2.20;;;;;;;;;;5005325;28;20022;-57
2024/02/20 12:02:59;;;;;;;13.55;2.78;;;;;;;;;;4996919;28;20018;-57
2024/02/20 12:05:25;;;;;;;12.05;2.10;;;;;;;;;;5002656;28;20109;-57
2024/02/20 12:07:50;;;;;;;18.23;2.42;;;;;;;;;;5014176;28;20435;-57
2024/02/20 12:10:17;;;;;;;12.88;1.95;;;;;;;;;;5013771;28;20034;-57
2024/02/20 12:12:42;;;;;;;;;;;;;;;;;;5014143;28;20025;-56
2024/02/20 12:15:08;;;;;;;13.43;1.90;;;;;;;;;;5013256;28;19905;-56
2024/02/20 12:17:43;;;;;;;12.85;1.70;;;;;;;;;;5013546;28;20022;-58
2024/02/20 12:20:10;;;;;;;16.23;2.10;;;;;;;;;;5013390;28;20022;-56
2024/02/20 12:22:39;;;;;;;13.13;2.25;;;;;;;;;;5013717;28;20037;-57
2024/02/20 12:25:05;;;;;;;14.30;2.00;;;;;;;;;;5013552;28;20033;-56
2024/02/20 12:27:31;;;;;;;21.42;1.92;;;;;;;;;;5013930;28;20080;-57
2024/02/20 12:29:56;;;;;;;10.95;1.88;;;;;;;;;;5013584;28;20437;-56
2024/02/20 12:32:21;;;;;;;9.48;1.65;;;;;;;;;;5012760;28;20033;-57
2024/02/20 12:34:47;;;;;;;18.42;2.30;;;;;;;;;;5013173;28;20057;-57
2024/02/20 12:37:12;;;;;;;15.45;2.10;;;;;;;;;;5013769;28;20025;-57
2024/02/20 12:39:37;;;;;;;9.30;2.33;;;;;;;;;;5013080;28;20382;-56
2024/02/20 12:42:03;;;;;;;11.52;1.70;;;;;;;;;;5013286;28;20494;-58
2024/02/20 12:44:28;;;;;;;8.75;1.85;;;;;;;;;;5013593;28;20029;-57
2024/02/20 12:46:53;;;;;;;11.13;1.80;;;;;;;;;;5012460;28;20026;-56
2024/02/20 12:49:18;;;;;;;13.13;1.88;;;;;;;;;;5013280;28;20037;-57
2024/02/20 12:51:43;;;;;;;10.82;2.00;;;;;;;;;;5007936;28;20025;-57
2024/02/20 12:54:08;;;;;;;13.32;2.17;;;;;;;;;;4993773;28;20062;-58
2024/02/20 12:56:33;;;;;;;14.48;1.70;;;;;;;;;;4997792;28;20026;-56
2024/02/20 12:58:59;;;;;;;10.05;2.05;;;;;;;;;;5012469;28;20018;-56
2024/02/20 13:01:24;;;;;;;10.23;1.80;;;;;;;;;;5012835;28;20119;-57
2024/02/20 13:03:49;;;;;;;13.93;2.00;;;;;;;;;;5012713;28;20145;-57
2024/02/20 13:06:14;;;;;;;13.10;1.87;;;;;;;;;;5013189;28;20018;-56
2024/02/20 13:08:39;;;;;;;9.50;1.60;;;;;;;;;;5015914;28;20387;-58
2024/02/20 13:11:06;;;;;;;11.73;1.80;;;;;;;;;;5015753;28;20037;-57
2024/02/20 13:13:31;;;;;;;9.05;1.60;;;;;;;;;;5012910;28;20022;-56
2024/02/20 13:15:56;;;;;;;11.40;1.63;;;;;;;;;;5012329;28;20109;-57
2024/02/20 13:18:21;;;;;;;11.83;1.70;;;;;;;;;;5012717;28;20053;-56
2024/02/20 13:20:48;;;;;;;13.27;2.23;;;;;;;;;;5010535;28;20052;-57
2024/02/20 13:23:13;;;;;;;12.18;1.50;;;;;;;;;;5010636;28;20452;-56
2024/02/20 13:25:38;;;;;;;11.87;1.73;;;;;;;;;;5011620;28;20033;-57
2024/02/20 13:28:06;;;;;;;9.52;1.55;;;;;;;;;;5012620;28;20036;-55
2024/02/20 13:30:32;;;;;;;12.30;1.70;;;;;;;;;;5016132;28;20029;-57
2024/02/20 13:32:57;;;;;;;12.63;1.92;;;;;;;;;;5017886;28;20519;-56
2024/02/20 13:35:23;;;;;;;9.15;1.85;;;;;;;;;;5025083;28;20021;-57
2024/02/20 13:37:49;;;;;;;10.30;1.77;;;;;;;;;;5033356;28;20026;-56
2024/02/20 13:40:14;;;;;;;12.35;2.30;;;;;;;;;;5030960;28;20041;-57
2024/02/20 13:42:39;;;;;;;12.13;2.77;;;;;;;;;;5016017;28;20084;-57
2024/02/20 13:45:05;;;;;;;11.38;2.17;;;;;;;;;;5012050;28;20378;-55
2024/02/20 13:47:32;;;;;;;12.00;1.95;;;;;;;;;;5012654;28;20057;-57
2024/02/20 13:49:57;;;;;;;13.07;2.15;;;;;;;;;;5011982;28;20440;-57
2024/02/20 13:52:22;;;;;;;10.70;2.10;;;;;;;;;;5011686;28;20018;-57
2024/02/20 13:54:47;;;;;;;14.10;2.10;;;;;;;;;;5011913;28;20017;-58
2024/02/20 13:57:13;;;;;;;14.02;2.22;;;;;;;;;;5008456;28;20157;-56
2024/02/20 13:59:38;;;;;;;11.37;2.10;;;;;;;;;;4991686;28;20026;-56
2024/02/20 14:02:08;;;;;;;11.10;1.90;;;;;;;;;;4993448;28;20486;-57
2024/02/20 14:04:33;;;;;;;12.52;2.15;;;;;;;;;;5011098;28;20017;-56
2024/02/20 14:06:58;;;;;;;15.82;2.30;;;;;;;;;;5009975;28;20482;-56
2024/02/20 14:09:24;;;;;;;13.27;2.33;;;;;;;;;;5011814;28;20034;-57
2024/02/20 14:11:49;;;;;;;13.13;2.30;;;;;;;;;;5016463;28;20026;-57
2024/02/20 14:14:14;;;;;;;13.23;2.10;;;;;;;;;;5020384;28;20111;-58
2024/02/20 14:16:40;;;;;;;10.05;1.98;;;;;;;;;;5017412;28;20053;-56
2024/02/20 14:19:05;;;;;;;16.55;3.58;;;;;;;;;;5014930;28;20430;-56
2024/02/20 14:21:31;;;;;;;13.93;3.03;;;;;;;;;;5014183;28;20034;-56
2024/02/20 14:23:56;;;;;;;12.55;2.35;;;;;;;;;;5015787;28;20491;-56
2024/02/20 14:26:22;;;;;;;12.37;2.60;;;;;;;;;;5014587;28;20033;-57
2024/02/20 14:28:47;;;;;;;12.68;2.10;;;;;;;;;;5015445;28;20034;-56